createdAt,value
2019-04-07T00:00:54.497Z,21.53
2019-04-07T00:03:23.089Z,20.60
2019-04-07T00:05:52.265Z,20.47
2019-04-07T00:08:21.623Z,20.37
2019-04-07T00:10:50.580Z,19.33
2019-04-07T00:13:19.460Z,19.97
2019-04-07T00:15:48.095Z,19.60
2019-04-07T00:18:16.871Z,21.17
2019-04-07T00:20:45.387Z,20.43
2019-04-07T00:23:14.131Z,20.77
2019-04-07T00:25:43.406Z,20.80
2019-04-07T00:28:11.920Z,19.57
2019-04-07T00:30:40.462Z,18.47
2019-04-07T00:33:08.922Z,19.67
2019-04-07T00:35:37.638Z,18.70
2019-04-07T00:38:06.261Z,18.43
2019-04-07T00:40:34.906Z,19.97
2019-04-07T00:43:03.536Z,19.63
2019-04-07T00:45:32.020Z,17.97
2019-04-07T00:48:00.547Z,19.87
2019-04-07T00:50:30.532Z,18.53
2019-04-07T00:52:59.290Z,17.90
2019-04-07T00:55:27.790Z,18.87
2019-04-07T00:57:56.285Z,18.53
2019-04-07T01:00:26.961Z,17.97
2019-04-07T01:02:56.102Z,19.60
2019-04-07T01:05:35.593Z,19.13
2019-04-07T01:07:55.440Z,20.13
2019-04-07T01:10:24.250Z,18.73
2019-04-07T01:12:53.337Z,18.97
2019-04-07T01:15:23.018Z,20.33
2019-04-07T01:17:52.370Z,19.67
2019-04-07T01:20:21.565Z,19.60
2019-04-07T01:22:50.228Z,18.47
2019-04-07T01:25:19.306Z,19.23
2019-04-07T01:27:47.885Z,20.30
2019-04-07T01:30:17.182Z,19.17
2019-04-07T01:32:45.816Z,21.10
2019-04-07T01:35:14.524Z,20.43
2019-04-07T01:37:43.788Z,20.60
2019-04-07T01:40:13.491Z,21.93
2019-04-07T01:42:43.694Z,22.13
2019-04-07T01:45:30.333Z,22.50
2019-04-07T01:48:16.504Z,22.37
2019-04-07T01:50:59.283Z,21.57
2019-04-07T01:53:35.625Z,20.43
2019-04-07T01:56:06.447Z,22.70
2019-04-07T01:58:53.599Z,21.53
2019-04-07T02:01:29.661Z,21.63
2019-04-07T02:04:14.930Z,22.83
2019-04-07T02:07:00.751Z,22.97
2019-04-07T02:09:34.120Z,22.73
2019-04-07T02:12:16.947Z,22.20
2019-04-07T02:14:47.112Z,21.73
2019-04-07T02:17:17.384Z,22.23
2019-04-07T02:20:03.807Z,22.83
2019-04-07T02:22:36.761Z,22.70
2019-04-07T02:25:11.815Z,22.63
2019-04-07T02:27:44.895Z,22.53
2019-04-07T02:30:16.077Z,20.63
2019-04-07T02:32:49.983Z,20.90
2019-04-07T02:35:36.479Z,20.13
2019-04-07T02:38:17.663Z,19.33
2019-04-07T02:40:47.776Z,20.67
2019-04-07T02:43:31.002Z,20.33
2019-04-07T02:46:02.259Z,19.70
2019-04-07T02:48:49.306Z,21.20
2019-04-07T02:51:20.113Z,21.07
2019-04-07T02:53:51.036Z,19.97
2019-04-07T02:56:23.800Z,19.20
2019-04-07T02:58:54.900Z,20.00
2019-04-07T03:01:26.353Z,19.63
2019-04-07T03:04:03.329Z,18.77
2019-04-07T03:06:52.838Z,17.17
2019-04-07T03:09:36.567Z,18.63
2019-04-07T03:12:07.287Z,17.20
2019-04-07T03:14:41.294Z,18.00
2019-04-07T03:17:17.390Z,18.13
2019-04-07T03:19:54.063Z,19.13
2019-04-07T03:22:36.765Z,18.13
2019-04-07T03:25:08.154Z,18.40
2019-04-07T03:27:47.406Z,17.83
2019-04-07T03:30:22.188Z,18.20
2019-04-07T03:33:12.770Z,17.73
2019-04-07T03:35:42.818Z,17.10
2019-04-07T03:38:27.514Z,19.10
2019-04-07T03:41:03.389Z,17.10
2019-04-07T03:43:40.116Z,17.50
2019-04-07T03:46:22.350Z,15.63
2019-04-07T03:49:02.012Z,17.30
2019-04-07T03:51:32.945Z,17.30
2019-04-07T03:54:19.670Z,16.77
2019-04-07T03:57:06.987Z,16.73
2019-04-07T03:59:55.517Z,17.10
2019-04-07T04:02:35.104Z,16.67
2019-04-07T04:05:08.648Z,16.73
2019-04-07T04:07:39.140Z,16.90
2019-04-07T04:10:19.666Z,15.97
2019-04-07T04:12:53.021Z,15.47
2019-04-07T04:15:24.153Z,16.77
2019-04-07T04:17:53.811Z,15.90
2019-04-07T04:20:22.478Z,16.63
2019-04-07T04:22:50.956Z,17.37
2019-04-07T04:25:19.477Z,17.40
2019-04-07T04:27:48.652Z,15.40
2019-04-07T04:30:17.520Z,17.10
2019-04-07T04:32:46.413Z,16.70
2019-04-07T04:35:15.100Z,16.50
2019-04-07T04:37:49.675Z,16.83
2019-04-07T04:40:14.164Z,15.53
2019-04-07T04:42:42.702Z,15.97
2019-04-07T04:45:11.303Z,16.17
2019-04-07T04:47:40.669Z,15.63
2019-04-07T04:50:10.006Z,16.40
2019-04-07T04:52:38.698Z,14.87
2019-04-07T04:55:07.424Z,15.83
2019-04-07T04:57:35.942Z,16.70
2019-04-07T05:00:09.471Z,16.80
2019-04-07T05:02:39.476Z,16.23
2019-04-07T05:05:09.588Z,16.77
2019-04-07T05:07:50.078Z,16.00
2019-04-07T05:10:10.071Z,17.40
2019-04-07T05:12:39.085Z,16.47
2019-04-07T05:15:08.115Z,15.77
2019-04-07T05:17:36.968Z,16.47
2019-04-07T05:20:06.834Z,15.83
2019-04-07T05:22:35.859Z,15.63
2019-04-07T05:25:06.993Z,15.33
2019-04-07T05:27:35.727Z,16.03
2019-04-07T05:30:07.654Z,16.93
2019-04-07T05:32:36.796Z,16.90
2019-04-07T05:35:07.913Z,15.63
2019-04-07T05:37:37.215Z,17.77
2019-04-07T05:40:06.614Z,17.47
2019-04-07T05:42:35.461Z,17.23
2019-04-07T05:45:06.440Z,17.13
2019-04-07T05:47:35.146Z,16.97
2019-04-07T05:50:05.488Z,16.80
2019-04-07T05:52:39.304Z,18.47
2019-04-07T05:55:05.984Z,17.93
2019-04-07T05:57:35.756Z,16.90
2019-04-07T06:00:07.341Z,18.57
2019-04-07T06:02:36.337Z,18.47
2019-04-07T06:05:06.582Z,18.73
2019-04-07T06:07:36.752Z,18.37
2019-04-07T06:10:07.960Z,19.30
2019-04-07T06:12:39.358Z,19.93
2019-04-07T06:15:07.154Z,18.27
2019-04-07T06:17:35.811Z,19.57
2019-04-07T06:20:11.931Z,18.57
2019-04-07T06:22:38.035Z,17.87
2019-04-07T06:25:07.778Z,18.63
2019-04-07T06:27:36.283Z,18.60
2019-04-07T06:30:08.464Z,18.27
2019-04-07T06:32:38.505Z,17.63
2019-04-07T06:35:07.504Z,20.80
2019-04-07T06:37:36.331Z,17.07
2019-04-07T06:40:06.201Z,17.13
2019-04-07T06:42:35.379Z,16.30
2019-04-07T06:45:07.088Z,15.17
2019-04-07T06:47:37.185Z,14.87
2019-04-07T06:50:09.554Z,15.67
2019-04-07T06:55:33.365Z,15.53
2019-04-07T06:58:16.388Z,16.30
2019-04-07T07:00:46.718Z,16.20
2019-04-07T07:03:19.387Z,15.47
2019-04-07T07:06:01.494Z,15.10
2019-04-07T07:08:48.599Z,14.87
2019-04-07T07:11:41.410Z,14.37
2019-04-07T07:14:12.370Z,13.90
2019-04-07T07:16:44.405Z,14.80
2019-04-07T07:19:30.063Z,14.13
2019-04-07T07:22:16.553Z,14.03
2019-04-07T07:24:47.127Z,14.53
2019-04-07T07:27:15.457Z,12.77
2019-04-07T07:29:45.970Z,14.27
2019-04-07T07:32:14.843Z,14.30
2019-04-07T07:34:43.477Z,11.87
2019-04-07T07:37:12.658Z,13.70
2019-04-07T07:39:42.609Z,13.30
2019-04-07T07:42:12.178Z,13.43
2019-04-07T07:45:00.099Z,13.37
2019-04-07T07:47:28.531Z,14.10
2019-04-07T07:49:57.552Z,13.17
2019-04-07T07:52:26.126Z,13.73
2019-04-07T07:54:55.211Z,12.30
2019-04-07T07:57:24.870Z,12.47
2019-04-07T07:59:53.459Z,12.13
2019-04-07T08:02:22.067Z,12.20
2019-04-07T08:04:51.092Z,11.97
2019-04-07T08:07:20.283Z,14.27
2019-04-07T08:09:49.141Z,15.10
2019-04-07T08:12:17.740Z,12.90
2019-04-07T08:14:49.744Z,13.23
2019-04-07T08:17:17.244Z,12.20
2019-04-07T08:19:46.634Z,13.17
2019-04-07T08:22:26.632Z,13.67
2019-04-07T08:24:47.600Z,14.03
2019-04-07T08:27:16.312Z,13.77
2019-04-07T08:29:45.232Z,14.50
2019-04-07T08:32:13.774Z,13.30
2019-04-07T08:34:42.578Z,13.60
2019-04-07T08:37:14.400Z,14.00
2019-04-07T08:39:42.067Z,14.20
2019-04-07T08:42:14.065Z,13.80
2019-04-07T08:44:40.927Z,13.97
2019-04-07T08:47:11.975Z,13.50
2019-04-07T08:49:40.366Z,14.50
2019-04-07T08:52:11.105Z,13.03
2019-04-07T08:54:39.351Z,13.33
2019-04-07T08:57:08.271Z,13.73
2019-04-07T08:59:39.885Z,12.53
2019-04-07T09:02:07.601Z,11.90
2019-04-07T09:04:36.612Z,11.60
2019-04-07T09:07:05.241Z,12.80
2019-04-07T09:09:36.895Z,13.73
2019-04-07T09:12:04.804Z,14.13
2019-04-07T09:14:33.312Z,12.47
2019-04-07T09:17:15.108Z,14.03
2019-04-07T09:19:47.928Z,12.80
2019-04-07T09:22:34.753Z,13.47
2019-04-07T09:25:09.463Z,12.20
2019-04-07T09:27:39.918Z,13.20
2019-04-07T09:30:11.245Z,12.13
2019-04-07T09:32:51.149Z,13.50
2019-04-07T09:35:39.627Z,14.67
2019-04-07T09:38:27.356Z,11.80
2019-04-07T09:40:58.404Z,11.30
2019-04-07T09:43:32.122Z,12.20
2019-04-07T09:46:11.911Z,11.93
2019-04-07T09:48:58.708Z,13.37
2019-04-07T09:51:46.173Z,12.30
2019-04-07T09:54:22.075Z,12.10
2019-04-07T09:57:09.702Z,12.77
2019-04-07T09:59:40.009Z,13.93
2019-04-07T10:02:13.253Z,14.00
2019-04-07T10:04:53.008Z,11.67
2019-04-07T10:07:34.873Z,12.87
2019-04-07T10:10:14.494Z,12.97
2019-04-07T10:13:00.677Z,12.60
2019-04-07T10:15:31.630Z,13.60
2019-04-07T10:18:02.126Z,13.30
2019-04-07T10:20:44.478Z,13.37
2019-04-07T10:23:31.122Z,15.17
2019-04-07T10:26:04.100Z,11.27
2019-04-07T10:28:46.543Z,12.33
2019-04-07T10:31:19.517Z,12.53
2019-04-07T10:33:49.211Z,12.90
2019-04-07T10:36:25.627Z,13.10
2019-04-07T10:38:58.589Z,13.77
2019-04-07T10:41:40.651Z,12.70
2019-04-07T10:44:13.960Z,12.73
2019-04-07T10:46:56.081Z,12.47
2019-04-07T10:49:43.153Z,10.73
2019-04-07T10:52:29.987Z,12.37
2019-04-07T10:55:06.387Z,12.40
2019-04-07T10:57:45.741Z,10.77
2019-04-07T11:00:31.400Z,11.10
2019-04-07T11:03:02.025Z,11.37
2019-04-07T11:05:32.670Z,11.37
2019-04-07T11:08:02.871Z,10.60
2019-04-07T11:10:39.489Z,10.03
2019-04-07T11:13:12.485Z,10.50
2019-04-07T11:15:47.715Z,10.37
2019-04-07T11:18:19.061Z,9.87
2019-04-07T11:21:05.531Z,11.40
2019-04-07T11:23:35.887Z,10.33
2019-04-07T11:26:09.158Z,10.90
2019-04-07T11:28:51.076Z,11.33
2019-04-07T11:31:21.267Z,11.50
2019-04-07T11:34:06.708Z,10.67
2019-04-07T11:36:49.858Z,11.30
2019-04-07T11:39:23.086Z,11.53
2019-04-07T11:41:53.256Z,11.47
2019-04-07T11:44:25.778Z,12.17
2019-04-07T11:47:02.116Z,5.43
2019-04-07T11:49:40.803Z,5.50
2019-04-07T11:52:22.429Z,4.30
2019-04-07T11:54:53.005Z,4.77
2019-04-07T11:57:27.111Z,5.23
2019-04-07T12:00:02.698Z,5.07
2019-04-07T12:02:42.335Z,5.40
2019-04-07T12:05:16.962Z,5.83
2019-04-07T12:08:03.641Z,6.27
2019-04-07T12:10:34.396Z,5.30
2019-04-07T12:13:07.339Z,5.07
2019-04-07T12:15:46.287Z,6.03
2019-04-07T12:18:32.149Z,5.80
2019-04-07T12:21:08.789Z,5.90
2019-04-07T12:23:41.903Z,6.60
2019-04-07T12:26:18.156Z,6.60
2019-04-07T12:28:50.358Z,5.70
2019-04-07T12:31:23.923Z,5.93
2019-04-07T12:33:57.375Z,5.60
2019-04-07T12:36:44.239Z,5.70
2019-04-07T12:39:23.260Z,5.80
2019-04-07T12:41:59.527Z,5.83
2019-04-07T12:44:33.205Z,5.97
2019-04-07T12:47:06.220Z,5.23
2019-04-07T12:49:53.167Z,4.60
2019-04-07T12:52:31.119Z,4.70
2019-04-07T12:55:18.017Z,5.57
2019-04-07T12:57:58.447Z,6.03
2019-04-07T13:00:28.896Z,5.97
2019-04-07T13:03:11.647Z,5.50
2019-04-07T13:05:42.683Z,5.80
2019-04-07T13:08:12.916Z,5.60
2019-04-07T13:10:51.539Z,4.37
2019-04-07T13:13:32.748Z,5.70
2019-04-07T13:16:05.533Z,5.80
2019-04-07T13:18:39.208Z,5.20
2019-04-07T13:21:10.054Z,7.10
2019-04-07T13:23:56.039Z,11.70
2019-04-07T13:26:32.005Z,11.30
2019-04-07T13:29:04.171Z,8.70
2019-04-07T13:31:47.046Z,8.73
2019-04-07T13:34:31.073Z,7.77
2019-04-07T13:37:13.499Z,9.27
2019-04-07T13:39:48.116Z,8.70
2019-04-07T13:42:30.971Z,9.07
2019-04-07T13:45:30.124Z,11.57
2019-04-07T13:48:05.437Z,10.63
2019-04-07T13:50:38.250Z,10.13
2019-04-07T13:53:12.099Z,9.77
2019-04-07T13:55:45.292Z,10.30
2019-04-07T13:58:16.056Z,9.40
2019-04-07T14:01:03.098Z,10.10
2019-04-07T14:03:51.469Z,9.67
2019-04-07T14:06:22.352Z,7.70
2019-04-07T14:08:52.439Z,10.13
2019-04-07T14:11:29.457Z,7.10
2019-04-07T14:14:05.673Z,8.77
2019-04-07T14:16:42.324Z,9.40
2019-04-07T14:19:21.881Z,9.27
2019-04-07T14:22:04.394Z,10.13
2019-04-07T14:24:47.204Z,8.97
2019-04-07T14:27:26.288Z,8.87
2019-04-07T14:29:57.068Z,9.03
2019-04-07T14:32:27.359Z,8.87
2019-04-07T14:35:04.181Z,7.40
2019-04-07T14:37:35.974Z,9.17
2019-04-07T14:40:18.366Z,12.17
2019-04-07T14:42:51.887Z,8.40
2019-04-07T14:45:28.311Z,8.43
2019-04-07T14:47:58.942Z,8.00
2019-04-07T14:50:45.463Z,7.80
2019-04-07T14:53:16.423Z,7.87
2019-04-07T14:55:52.604Z,6.80
2019-04-07T14:58:29.123Z,8.97
2019-04-07T15:01:02.669Z,8.70
2019-04-07T15:03:29.627Z,8.20
2019-04-07T15:05:59.343Z,9.40
2019-04-07T15:08:32.953Z,9.20
2019-04-07T15:11:15.430Z,8.67
2019-04-07T15:13:45.373Z,9.00
2019-04-07T15:16:12.457Z,8.60
2019-04-07T15:18:41.102Z,8.93
2019-04-07T15:21:09.966Z,9.60
2019-04-07T15:23:38.628Z,10.03
2019-04-07T15:26:07.778Z,11.13
2019-04-07T15:28:37.073Z,10.03
2019-04-07T15:31:06.168Z,9.23
2019-04-07T15:33:35.166Z,8.10
2019-04-07T15:36:04.354Z,9.83
2019-04-07T15:38:34.494Z,9.27
2019-04-07T15:41:07.712Z,8.93
2019-04-07T15:43:34.997Z,9.60
2019-04-07T15:46:03.477Z,9.13
2019-04-07T15:48:32.846Z,8.53
2019-04-07T15:51:04.623Z,9.40
2019-04-07T15:53:32.006Z,8.93
2019-04-07T15:56:04.976Z,8.40
2019-04-07T15:58:31.019Z,9.37
2019-04-07T16:01:00.221Z,9.07
2019-04-07T16:03:28.852Z,8.87
2019-04-07T16:05:58.018Z,8.57
2019-04-07T16:08:28.802Z,10.57
2019-04-07T16:10:56.821Z,9.57
2019-04-07T16:13:26.609Z,9.27
2019-04-07T16:15:55.351Z,8.97
2019-04-07T16:18:24.135Z,8.60
2019-04-07T16:20:52.930Z,10.10
2019-04-07T16:23:22.174Z,10.13
2019-04-07T16:25:51.238Z,10.73
2019-04-07T16:28:20.660Z,8.73
2019-04-07T16:30:51.871Z,9.27
2019-04-07T16:33:19.533Z,10.00
2019-04-07T16:35:52.794Z,9.47
2019-04-07T16:38:19.441Z,9.30
2019-04-07T16:40:48.053Z,9.40
2019-04-07T16:43:18.615Z,10.80
2019-04-07T16:45:47.172Z,9.47
2019-04-07T16:48:16.166Z,8.13
2019-04-07T16:50:45.149Z,8.43
2019-04-07T16:53:13.920Z,7.77
2019-04-07T16:55:46.533Z,8.73
2019-04-07T16:58:14.483Z,9.23
2019-04-07T17:00:43.036Z,9.30
2019-04-07T17:03:11.487Z,9.17
2019-04-07T17:05:40.114Z,8.90
2019-04-07T17:08:08.811Z,9.17
2019-04-07T17:10:39.030Z,8.43
2019-04-07T17:13:16.870Z,9.07
2019-04-07T17:15:40.445Z,9.50
2019-04-07T17:18:10.540Z,9.13
2019-04-07T17:20:39.050Z,9.43
2019-04-07T17:23:07.578Z,8.90
2019-04-07T17:25:36.115Z,8.90
2019-04-07T17:28:06.403Z,8.37
2019-04-07T17:30:38.084Z,8.60
2019-04-07T17:33:06.546Z,8.73
2019-04-07T17:35:35.864Z,8.27
2019-04-07T17:38:07.069Z,8.40
2019-04-07T17:40:37.636Z,8.27
2019-04-07T17:43:29.901Z,9.57
2019-04-07T17:46:02.406Z,9.97
2019-04-07T17:48:40.379Z,14.60
2019-04-07T17:51:21.845Z,10.63
2019-04-07T17:54:08.972Z,12.07
2019-04-07T17:56:45.573Z,9.47
2019-04-07T17:59:17.087Z,9.40
2019-04-07T18:01:55.461Z,10.00
2019-04-07T18:04:28.191Z,8.80
2019-04-07T18:07:06.167Z,11.47
2019-04-07T18:09:40.594Z,10.47
2019-04-07T18:12:14.122Z,8.73
2019-04-07T18:14:49.253Z,9.73
2019-04-07T18:17:22.639Z,10.27
2019-04-07T18:20:09.524Z,10.20
2019-04-07T18:22:45.499Z,10.17
2019-04-07T18:25:27.382Z,11.10
2019-04-07T18:28:01.076Z,11.33
2019-04-07T18:30:35.795Z,13.13
2019-04-07T18:33:16.394Z,12.97
2019-04-07T18:35:43.512Z,10.00
2019-04-07T18:38:17.325Z,9.03
2019-04-07T18:40:48.292Z,10.37
2019-04-07T18:43:21.520Z,10.73
2019-04-07T18:46:03.535Z,10.13
2019-04-07T18:48:49.875Z,10.87
2019-04-07T18:51:37.101Z,13.03
2019-04-07T18:54:24.835Z,12.13
2019-04-07T18:57:12.704Z,10.90
2019-04-07T18:59:55.582Z,9.93
2019-04-07T19:02:23.645Z,9.43
2019-04-07T19:05:00.201Z,10.23
2019-04-07T19:07:47.130Z,9.83
2019-04-07T19:10:29.100Z,9.50
2019-04-07T19:13:17.559Z,9.83
2019-04-07T19:15:57.852Z,9.13
2019-04-07T19:18:33.404Z,9.90
2019-04-07T19:21:12.530Z,6.30
2019-04-07T19:23:53.923Z,6.17
2019-04-07T19:26:27.842Z,6.23
2019-04-07T19:29:12.988Z,5.77
2019-04-07T19:31:43.853Z,6.10
2019-04-07T19:34:20.526Z,6.00
2019-04-07T19:37:08.103Z,6.20
2019-04-07T19:39:38.397Z,6.30
2019-04-07T19:42:17.659Z,6.20
2019-04-07T19:44:50.925Z,6.50
2019-04-07T19:47:31.283Z,6.33
2019-04-07T19:50:16.994Z,6.40
2019-04-07T19:52:52.909Z,6.03
2019-04-07T19:55:28.883Z,6.03
2019-04-07T19:58:07.906Z,6.50
2019-04-07T20:00:56.462Z,5.80
2019-04-07T20:03:28.683Z,6.20
2019-04-07T20:06:02.708Z,6.40
2019-04-07T20:08:48.064Z,6.23
2019-04-07T20:11:32.536Z,6.37
2019-04-07T20:14:11.702Z,6.60
2019-04-07T20:16:51.582Z,6.20
2019-04-07T20:19:31.262Z,6.50
2019-04-07T20:22:02.285Z,5.77
2019-04-07T20:24:50.303Z,6.37
2019-04-07T20:27:24.822Z,6.77
2019-04-07T20:29:55.989Z,6.53
2019-04-07T20:32:26.382Z,6.50
2019-04-07T20:35:14.570Z,6.80
2019-04-07T20:38:03.338Z,6.17
2019-04-07T20:40:36.264Z,6.00
2019-04-07T20:43:17.640Z,6.10
2019-04-07T20:46:00.502Z,6.40
2019-04-07T20:48:46.968Z,6.30
2019-04-07T20:51:17.830Z,6.30
2019-04-07T20:54:05.529Z,6.70
2019-04-07T20:56:35.879Z,6.47
2019-04-07T20:59:08.588Z,6.27
2019-04-07T21:02:00.576Z,6.60
2019-04-07T21:04:34.812Z,7.00
2019-04-07T21:07:21.540Z,6.50
2019-04-07T21:10:05.243Z,6.70
2019-04-07T21:12:33.487Z,6.60
2019-04-07T21:15:21.775Z,7.73
2019-04-07T21:18:04.152Z,6.47
2019-04-07T21:20:38.932Z,6.87
2019-04-07T21:23:09.274Z,6.13
2019-04-07T21:25:45.273Z,6.47
2019-04-07T21:28:27.401Z,6.53
2019-04-07T21:30:57.821Z,6.17
2019-04-07T21:33:30.738Z,6.50
2019-04-07T21:36:06.424Z,6.60
2019-04-07T21:38:35.788Z,7.10
2019-04-07T21:41:22.556Z,6.90
2019-04-07T21:43:59.547Z,6.70
2019-04-07T21:46:30.407Z,6.50
2019-04-07T21:49:04.012Z,7.93
2019-04-07T21:51:34.236Z,6.03
2019-04-07T21:54:21.529Z,6.77
2019-04-07T21:57:08.022Z,6.60
2019-04-07T21:59:54.668Z,7.43
2019-04-07T22:02:42.230Z,6.73
2019-04-07T22:05:12.103Z,6.40
2019-04-07T22:08:03.763Z,6.27
2019-04-07T22:10:28.706Z,5.77
2019-04-07T22:13:02.885Z,6.97
2019-04-07T22:15:40.573Z,6.53
2019-04-07T22:17:58.358Z,6.53
2019-04-07T22:20:27.846Z,6.77
2019-04-07T22:22:59.115Z,6.33
2019-04-07T22:25:30.522Z,6.20
2019-04-07T22:27:59.296Z,6.73
2019-04-07T22:30:27.901Z,6.33
2019-04-07T22:32:56.404Z,7.20
2019-04-07T22:35:24.942Z,6.53
2019-04-07T22:37:53.465Z,6.93
2019-04-07T22:40:22.275Z,6.37
2019-04-07T22:42:50.709Z,6.70
2019-04-07T22:45:19.186Z,6.37
2019-04-07T22:47:51.556Z,6.33
2019-04-07T22:50:18.243Z,6.57
2019-04-07T22:52:49.199Z,6.33
2019-04-07T22:55:16.883Z,6.13
2019-04-07T22:57:45.397Z,6.70
2019-04-07T23:00:16.992Z,6.27
2019-04-07T23:02:46.520Z,6.60
2019-04-07T23:05:15.207Z,6.80
2019-04-07T23:07:43.828Z,6.20
2019-04-07T23:10:13.324Z,6.60
2019-04-07T23:12:42.341Z,7.60
2019-04-07T23:15:11.177Z,6.70
2019-04-07T23:17:39.866Z,6.57
2019-04-07T23:20:09.319Z,6.30
2019-04-07T23:22:38.284Z,6.27
2019-04-07T23:25:07.874Z,5.23
2019-04-07T23:27:36.465Z,6.10
2019-04-07T23:30:11.030Z,8.70
2019-04-07T23:32:39.786Z,6.80
2019-04-07T23:35:10.441Z,6.50
2019-04-07T23:37:39.084Z,7.43
2019-04-07T23:40:08.623Z,6.67
2019-04-07T23:42:41.521Z,6.83
2019-04-07T23:45:10.386Z,6.63
2019-04-07T23:47:38.901Z,6.57
2019-04-07T23:50:07.946Z,6.60
2019-04-07T23:52:36.385Z,7.07
2019-04-07T23:55:04.923Z,6.37
2019-04-07T23:57:33.439Z,6.90
